sensor_id;sensor_type;location;lat;lon;timestamp;P1;durP1;ratioP1;P2;durP2;ratioP2
11531;SDS011;5822;51.000;5.874;2023-06-14T00:01:50;17.90;;;16.90;;
11531;SDS011;5822;51.000;5.874;2023-06-14T00:04:16;18.00;;;17.00;;
11531;SDS011;5822;51.000;5.874;2023-06-14T00:06:42;18.20;;;17.20;;
11531;SDS011;5822;51.000;5.874;2023-06-14T00:09:10;18.38;;;17.38;;
11531;SDS011;5822;51.000;5.874;2023-06-14T00:11:42;18.20;;;17.20;;
11531;SDS011;5822;51.000;5.874;2023-06-14T00:14:08;18.67;;;17.67;;
11531;SDS011;5822;51.000;5.874;2023-06-14T00:16:34;18.20;;;17.20;;
11531;SDS011;5822;51.000;5.874;2023-06-14T00:19:00;18.63;;;17.63;;
11531;SDS011;5822;51.000;5.874;2023-06-14T00:21:28;18.30;;;17.30;;
11531;SDS011;5822;51.000;5.874;2023-06-14T00:23:54;18.50;;;17.50;;
11531;SDS011;5822;51.000;5.874;2023-06-14T00:26:21;18.63;;;17.63;;
11531;SDS011;5822;51.000;5.874;2023-06-14T00:28:46;18.40;;;17.40;;
11531;SDS011;5822;51.000;5.874;2023-06-14T00:31:12;18.58;;;17.58;;
11531;SDS011;5822;51.000;5.874;2023-06-14T00:33:38;18.30;;;17.30;;
11531;SDS011;5822;51.000;5.874;2023-06-14T00:36:03;18.03;;;17.03;;
11531;SDS011;5822;51.000;5.874;2023-06-14T00:38:29;18.40;;;17.40;;
11531;SDS011;5822;51.000;5.874;2023-06-14T00:40:55;18.27;;;17.27;;
11531;SDS011;5822;51.000;5.874;2023-06-14T00:43:20;18.33;;;17.33;;
11531;SDS011;5822;51.000;5.874;2023-06-14T00:45:46;18.17;;;17.17;;
11531;SDS011;5822;51.000;5.874;2023-06-14T00:48:11;18.20;;;17.20;;
11531;SDS011;5822;51.000;5.874;2023-06-14T00:50:39;17.95;;;17.02;;
11531;SDS011;5822;51.000;5.874;2023-06-14T00:53:05;17.40;;;16.50;;
11531;SDS011;5822;51.000;5.874;2023-06-14T00:55:31;17.83;;;16.83;;
11531;SDS011;5822;51.000;5.874;2023-06-14T00:57:58;18.17;;;17.17;;
11531;SDS011;5822;51.000;5.874;2023-06-14T01:00:24;17.77;;;16.88;;
11531;SDS011;5822;51.000;5.874;2023-06-14T01:02:49;17.90;;;16.90;;
11531;SDS011;5822;51.000;5.874;2023-06-14T01:05:15;17.60;;;16.70;;
11531;SDS011;5822;51.000;5.874;2023-06-14T01:15:57;18.60;;;17.60;;
11531;SDS011;5822;51.000;5.874;2023-06-14T01:18:23;18.05;;;17.13;;
11531;SDS011;5822;51.000;5.874;2023-06-14T01:20:51;18.40;;;17.40;;
11531;SDS011;5822;51.000;5.874;2023-06-14T01:23:20;17.65;;;16.75;;
11531;SDS011;5822;51.000;5.874;2023-06-14T01:25:47;18.17;;;17.17;;
11531;SDS011;5822;51.000;5.874;2023-06-14T01:28:17;18.58;;;17.58;;
11531;SDS011;5822;51.000;5.874;2023-06-14T01:30:46;18.60;;;17.57;;
11531;SDS011;5822;51.000;5.874;2023-06-14T01:33:15;18.48;;;17.48;;
11531;SDS011;5822;51.000;5.874;2023-06-14T01:35:43;18.25;;;17.25;;
11531;SDS011;5822;51.000;5.874;2023-06-14T01:38:10;18.30;;;17.30;;
11531;SDS011;5822;51.000;5.874;2023-06-14T01:40:38;18.30;;;17.30;;
11531;SDS011;5822;51.000;5.874;2023-06-14T01:43:04;18.10;;;17.10;;
11531;SDS011;5822;51.000;5.874;2023-06-14T01:45:31;18.58;;;17.58;;
11531;SDS011;5822;51.000;5.874;2023-06-14T01:47:58;18.47;;;17.47;;
11531;SDS011;5822;51.000;5.874;2023-06-14T01:50:27;18.25;;;17.25;;
11531;SDS011;5822;51.000;5.874;2023-06-14T01:52:57;18.48;;;17.48;;
11531;SDS011;5822;51.000;5.874;2023-06-14T01:55:23;18.65;;;17.65;;
11531;SDS011;5822;51.000;5.874;2023-06-14T01:57:50;18.08;;;17.08;;
11531;SDS011;5822;51.000;5.874;2023-06-14T02:00:16;18.77;;;17.77;;
11531;SDS011;5822;51.000;5.874;2023-06-14T02:02:43;19.08;;;17.98;;
11531;SDS011;5822;51.000;5.874;2023-06-14T02:05:09;19.23;;;18.23;;
11531;SDS011;5822;51.000;5.874;2023-06-14T02:07:35;18.45;;;17.45;;
11531;SDS011;5822;51.000;5.874;2023-06-14T02:10:02;18.40;;;17.40;;
11531;SDS011;5822;51.000;5.874;2023-06-14T02:12:28;18.40;;;17.40;;
11531;SDS011;5822;51.000;5.874;2023-06-14T02:14:54;18.52;;;17.52;;
11531;SDS011;5822;51.000;5.874;2023-06-14T02:17:21;18.70;;;17.70;;
11531;SDS011;5822;51.000;5.874;2023-06-14T02:19:47;18.80;;;17.80;;
11531;SDS011;5822;51.000;5.874;2023-06-14T02:22:13;18.77;;;17.77;;
11531;SDS011;5822;51.000;5.874;2023-06-14T02:24:40;19.02;;;18.00;;
11531;SDS011;5822;51.000;5.874;2023-06-14T02:27:06;19.10;;;18.10;;
11531;SDS011;5822;51.000;5.874;2023-06-14T02:29:36;19.00;;;18.00;;
11531;SDS011;5822;51.000;5.874;2023-06-14T02:32:02;18.75;;;17.75;;
11531;SDS011;5822;51.000;5.874;2023-06-14T02:34:32;18.50;;;17.50;;
11531;SDS011;5822;51.000;5.874;2023-06-14T02:36:59;18.75;;;17.75;;
11531;SDS011;5822;51.000;5.874;2023-06-14T02:39:24;18.50;;;17.50;;
11531;SDS011;5822;51.000;5.874;2023-06-14T02:41:50;18.38;;;17.38;;
11531;SDS011;5822;51.000;5.874;2023-06-14T02:44:18;18.70;;;17.70;;
11531;SDS011;5822;51.000;5.874;2023-06-14T02:46:44;18.92;;;17.85;;
11531;SDS011;5822;51.000;5.874;2023-06-14T02:49:13;18.95;;;17.95;;
11531;SDS011;5822;51.000;5.874;2023-06-14T02:51:38;18.48;;;17.48;;
11531;SDS011;5822;51.000;5.874;2023-06-14T02:54:05;17.95;;;17.02;;
11531;SDS011;5822;51.000;5.874;2023-06-14T02:56:30;17.97;;;17.07;;
11531;SDS011;5822;51.000;5.874;2023-06-14T02:58:58;18.52;;;17.52;;
11531;SDS011;5822;51.000;5.874;2023-06-14T03:01:25;18.30;;;17.37;;
11531;SDS011;5822;51.000;5.874;2023-06-14T03:04:00;18.73;;;17.73;;
11531;SDS011;5822;51.000;5.874;2023-06-14T03:06:31;18.08;;;17.17;;
11531;SDS011;5822;51.000;5.874;2023-06-14T03:08:58;18.85;;;17.85;;
11531;SDS011;5822;51.000;5.874;2023-06-14T03:11:29;18.67;;;17.67;;
11531;SDS011;5822;51.000;5.874;2023-06-14T03:13:58;19.20;;;18.10;;
11531;SDS011;5822;51.000;5.874;2023-06-14T03:16:25;19.07;;;18.07;;
11531;SDS011;5822;51.000;5.874;2023-06-14T03:18:53;18.70;;;17.70;;
11531;SDS011;5822;51.000;5.874;2023-06-14T03:21:19;18.33;;;17.42;;
11531;SDS011;5822;51.000;5.874;2023-06-14T03:23:48;18.47;;;17.53;;
11531;SDS011;5822;51.000;5.874;2023-06-14T03:26:14;18.73;;;17.73;;
11531;SDS011;5822;51.000;5.874;2023-06-14T03:28:43;18.85;;;17.85;;
11531;SDS011;5822;51.000;5.874;2023-06-14T03:31:10;18.60;;;17.60;;
11531;SDS011;5822;51.000;5.874;2023-06-14T03:33:36;19.05;;;18.05;;
11531;SDS011;5822;51.000;5.874;2023-06-14T03:36:02;18.80;;;17.80;;
11531;SDS011;5822;51.000;5.874;2023-06-14T03:38:28;18.75;;;17.75;;
11531;SDS011;5822;51.000;5.874;2023-06-14T03:40:54;18.70;;;17.60;;
11531;SDS011;5822;51.000;5.874;2023-06-14T03:43:20;18.50;;;17.50;;
11531;SDS011;5822;51.000;5.874;2023-06-14T03:45:45;18.50;;;17.50;;
11531;SDS011;5822;51.000;5.874;2023-06-14T03:48:11;18.73;;;17.73;;
11531;SDS011;5822;51.000;5.874;2023-06-14T03:50:37;18.50;;;17.50;;
11531;SDS011;5822;51.000;5.874;2023-06-14T03:53:03;18.50;;;17.50;;
11531;SDS011;5822;51.000;5.874;2023-06-14T03:55:30;18.63;;;17.63;;
11531;SDS011;5822;51.000;5.874;2023-06-14T03:57:58;18.60;;;17.60;;
11531;SDS011;5822;51.000;5.874;2023-06-14T04:00:24;19.00;;;18.00;;
11531;SDS011;5822;51.000;5.874;2023-06-14T04:02:50;19.10;;;18.00;;
11531;SDS011;5822;51.000;5.874;2023-06-14T04:05:16;19.33;;;18.23;;
11531;SDS011;5822;51.000;5.874;2023-06-14T04:07:44;18.60;;;17.60;;
11531;SDS011;5822;51.000;5.874;2023-06-14T04:10:13;18.33;;;17.33;;
11531;SDS011;5822;51.000;5.874;2023-06-14T04:12:40;18.70;;;17.70;;
11531;SDS011;5822;51.000;5.874;2023-06-14T04:15:07;18.42;;;17.42;;
11531;SDS011;5822;51.000;5.874;2023-06-14T04:17:34;18.60;;;17.60;;
11531;SDS011;5822;51.000;5.874;2023-06-14T04:20:00;19.05;;;18.05;;
11531;SDS011;5822;51.000;5.874;2023-06-14T04:22:29;18.90;;;17.90;;
11531;SDS011;5822;51.000;5.874;2023-06-14T04:24:55;19.00;;;17.98;;
11531;SDS011;5822;51.000;5.874;2023-06-14T04:27:21;18.80;;;17.80;;
11531;SDS011;5822;51.000;5.874;2023-06-14T04:29:53;18.20;;;17.30;;
11531;SDS011;5822;51.000;5.874;2023-06-14T04:32:28;18.27;;;17.27;;
11531;SDS011;5822;51.000;5.874;2023-06-14T04:34:58;18.40;;;17.40;;
11531;SDS011;5822;51.000;5.874;2023-06-14T04:37:27;18.50;;;17.50;;
11531;SDS011;5822;51.000;5.874;2023-06-14T04:39:54;18.60;;;17.60;;
11531;SDS011;5822;51.000;5.874;2023-06-14T04:42:21;18.27;;;17.33;;
11531;SDS011;5822;51.000;5.874;2023-06-14T04:44:50;18.65;;;17.65;;
11531;SDS011;5822;51.000;5.874;2023-06-14T04:47:16;18.73;;;17.73;;
11531;SDS011;5822;51.000;5.874;2023-06-14T04:49:42;18.38;;;17.38;;
11531;SDS011;5822;51.000;5.874;2023-06-14T04:52:08;18.50;;;17.50;;
11531;SDS011;5822;51.000;5.874;2023-06-14T04:54:35;18.38;;;17.38;;
11531;SDS011;5822;51.000;5.874;2023-06-14T04:57:02;17.77;;;16.88;;
11531;SDS011;5822;51.000;5.874;2023-06-14T04:59:30;18.20;;;17.20;;
11531;SDS011;5822;51.000;5.874;2023-06-14T05:01:58;18.20;;;17.20;;
11531;SDS011;5822;51.000;5.874;2023-06-14T05:04:25;18.48;;;17.48;;
11531;SDS011;5822;51.000;5.874;2023-06-14T05:06:52;19.10;;;18.10;;
11531;SDS011;5822;51.000;5.874;2023-06-14T05:09:19;18.70;;;17.70;;
11531;SDS011;5822;51.000;5.874;2023-06-14T05:11:45;18.60;;;17.60;;
11531;SDS011;5822;51.000;5.874;2023-06-14T05:14:12;19.23;;;18.13;;
11531;SDS011;5822;51.000;5.874;2023-06-14T05:16:39;18.58;;;17.58;;
11531;SDS011;5822;51.000;5.874;2023-06-14T05:19:05;18.27;;;17.27;;
11531;SDS011;5822;51.000;5.874;2023-06-14T05:21:30;18.50;;;17.50;;
11531;SDS011;5822;51.000;5.874;2023-06-14T05:23:58;18.55;;;17.55;;
11531;SDS011;5822;51.000;5.874;2023-06-14T05:26:24;18.73;;;17.73;;
11531;SDS011;5822;51.000;5.874;2023-06-14T05:28:53;18.55;;;17.55;;
11531;SDS011;5822;51.000;5.874;2023-06-14T05:31:23;18.85;;;17.85;;
11531;SDS011;5822;51.000;5.874;2023-06-14T05:33:52;19.05;;;18.05;;
11531;SDS011;5822;51.000;5.874;2023-06-14T05:36:18;18.93;;;17.93;;
11531;SDS011;5822;51.000;5.874;2023-06-14T05:38:45;18.50;;;17.50;;
11531;SDS011;5822;51.000;5.874;2023-06-14T05:41:10;19.67;;;18.58;;
11531;SDS011;5822;51.000;5.874;2023-06-14T05:43:36;18.95;;;17.95;;
11531;SDS011;5822;51.000;5.874;2023-06-14T05:46:08;19.03;;;18.03;;
11531;SDS011;5822;51.000;5.874;2023-06-14T05:48:33;18.83;;;17.83;;
11531;SDS011;5822;51.000;5.874;2023-06-14T05:50:59;18.75;;;17.75;;
11531;SDS011;5822;51.000;5.874;2023-06-14T05:53:25;18.95;;;17.92;;
11531;SDS011;5822;51.000;5.874;2023-06-14T05:55:51;18.67;;;17.67;;
11531;SDS011;5822;51.000;5.874;2023-06-14T05:58:20;18.87;;;17.80;;
11531;SDS011;5822;51.000;5.874;2023-06-14T06:00:46;19.08;;;17.98;;
11531;SDS011;5822;51.000;5.874;2023-06-14T06:03:12;19.73;;;18.63;;
11531;SDS011;5822;51.000;5.874;2023-06-14T06:05:38;25.27;;;23.97;;
11531;SDS011;5822;51.000;5.874;2023-06-14T06:08:04;25.95;;;24.65;;
11531;SDS011;5822;51.000;5.874;2023-06-14T06:10:30;26.17;;;24.88;;
11531;SDS011;5822;51.000;5.874;2023-06-14T06:12:55;25.00;;;23.73;;
11531;SDS011;5822;51.000;5.874;2023-06-14T06:15:21;25.67;;;24.38;;
11531;SDS011;5822;51.000;5.874;2023-06-14T06:17:47;25.43;;;24.13;;
11531;SDS011;5822;51.000;5.874;2023-06-14T06:20:12;20.13;;;19.03;;
11531;SDS011;5822;51.000;5.874;2023-06-14T06:22:38;18.80;;;17.80;;
11531;SDS011;5822;51.000;5.874;2023-06-14T06:25:04;19.20;;;18.20;;
11531;SDS011;5822;51.000;5.874;2023-06-14T06:27:31;19.33;;;18.33;;
11531;SDS011;5822;51.000;5.874;2023-06-14T06:29:57;19.40;;;18.40;;
11531;SDS011;5822;51.000;5.874;2023-06-14T06:32:22;19.85;;;18.75;;
11531;SDS011;5822;51.000;5.874;2023-06-14T06:34:48;19.45;;;18.45;;
11531;SDS011;5822;51.000;5.874;2023-06-14T06:37:14;19.80;;;18.70;;
11531;SDS011;5822;51.000;5.874;2023-06-14T06:39:39;19.33;;;18.33;;
11531;SDS011;5822;51.000;5.874;2023-06-14T06:42:05;18.93;;;17.93;;
11531;SDS011;5822;51.000;5.874;2023-06-14T06:44:31;19.00;;;18.00;;
11531;SDS011;5822;51.000;5.874;2023-06-14T06:46:57;18.70;;;17.70;;
11531;SDS011;5822;51.000;5.874;2023-06-14T06:49:23;18.80;;;17.80;;
11531;SDS011;5822;51.000;5.874;2023-06-14T06:52:05;18.20;;;17.30;;
11531;SDS011;5822;51.000;5.874;2023-06-14T06:54:31;18.95;;;17.95;;
11531;SDS011;5822;51.000;5.874;2023-06-14T06:57:00;18.90;;;17.90;;
11531;SDS011;5822;51.000;5.874;2023-06-14T06:59:26;18.90;;;17.90;;
11531;SDS011;5822;51.000;5.874;2023-06-14T07:01:52;19.33;;;18.33;;
11531;SDS011;5822;51.000;5.874;2023-06-14T07:04:18;19.13;;;18.03;;
11531;SDS011;5822;51.000;5.874;2023-06-14T07:06:43;19.00;;;18.00;;
11531;SDS011;5822;51.000;5.874;2023-06-14T07:09:11;18.98;;;17.98;;
11531;SDS011;5822;51.000;5.874;2023-06-14T07:11:39;18.77;;;17.77;;
11531;SDS011;5822;51.000;5.874;2023-06-14T07:14:05;19.30;;;18.20;;
11531;SDS011;5822;51.000;5.874;2023-06-14T07:16:31;18.80;;;17.80;;
11531;SDS011;5822;51.000;5.874;2023-06-14T07:18:56;18.67;;;17.67;;
11531;SDS011;5822;51.000;5.874;2023-06-14T07:21:22;18.67;;;17.70;;
11531;SDS011;5822;51.000;5.874;2023-06-14T07:23:48;19.00;;;18.00;;
11531;SDS011;5822;51.000;5.874;2023-06-14T07:26:13;18.93;;;17.93;;
11531;SDS011;5822;51.000;5.874;2023-06-14T07:28:39;18.57;;;17.60;;
11531;SDS011;5822;51.000;5.874;2023-06-14T07:31:05;18.70;;;17.70;;
11531;SDS011;5822;51.000;5.874;2023-06-14T07:33:30;19.45;;;18.45;;
11531;SDS011;5822;51.000;5.874;2023-06-14T07:35:56;19.23;;;18.23;;
11531;SDS011;5822;51.000;5.874;2023-06-14T07:38:22;20.30;;;19.30;;
11531;SDS011;5822;51.000;5.874;2023-06-14T07:40:47;20.70;;;19.70;;
11531;SDS011;5822;51.000;5.874;2023-06-14T07:43:13;20.65;;;19.55;;
11531;SDS011;5822;51.000;5.874;2023-06-14T07:45:40;20.95;;;19.85;;
11531;SDS011;5822;51.000;5.874;2023-06-14T07:48:06;21.00;;;20.00;;
11531;SDS011;5822;51.000;5.874;2023-06-14T07:50:32;21.45;;;20.35;;
11531;SDS011;5822;51.000;5.874;2023-06-14T07:52:57;21.23;;;20.17;;
11531;SDS011;5822;51.000;5.874;2023-06-14T07:55:23;20.88;;;19.88;;
11531;SDS011;5822;51.000;5.874;2023-06-14T07:57:50;22.05;;;20.95;;
11531;SDS011;5822;51.000;5.874;2023-06-14T08:00:16;22.13;;;21.03;;
11531;SDS011;5822;51.000;5.874;2023-06-14T08:02:43;20.73;;;19.73;;
11531;SDS011;5822;51.000;5.874;2023-06-14T08:05:09;20.90;;;19.90;;
11531;SDS011;5822;51.000;5.874;2023-06-14T08:07:38;21.27;;;20.17;;
11531;SDS011;5822;51.000;5.874;2023-06-14T08:10:05;20.50;;;19.50;;
11531;SDS011;5822;51.000;5.874;2023-06-14T08:12:31;21.48;;;20.48;;
11531;SDS011;5822;51.000;5.874;2023-06-14T08:14:57;21.30;;;20.30;;
11531;SDS011;5822;51.000;5.874;2023-06-14T08:17:24;21.38;;;20.38;;
11531;SDS011;5822;51.000;5.874;2023-06-14T08:19:49;21.65;;;20.60;;
11531;SDS011;5822;51.000;5.874;2023-06-14T08:22:15;22.05;;;20.95;;
11531;SDS011;5822;51.000;5.874;2023-06-14T08:24:43;21.17;;;20.17;;
11531;SDS011;5822;51.000;5.874;2023-06-14T08:27:09;21.60;;;20.60;;
11531;SDS011;5822;51.000;5.874;2023-06-14T08:29:35;21.60;;;20.60;;
11531;SDS011;5822;51.000;5.874;2023-06-14T08:32:01;21.38;;;20.38;;
11531;SDS011;5822;51.000;5.874;2023-06-14T08:34:27;21.38;;;20.38;;
11531;SDS011;5822;51.000;5.874;2023-06-14T08:36:52;21.70;;;20.70;;
11531;SDS011;5822;51.000;5.874;2023-06-14T08:39:18;21.92;;;20.88;;
11531;SDS011;5822;51.000;5.874;2023-06-14T08:41:46;21.40;;;20.40;;
11531;SDS011;5822;51.000;5.874;2023-06-14T08:44:17;21.02;;;20.02;;
11531;SDS011;5822;51.000;5.874;2023-06-14T08:46:43;21.00;;;20.00;;
11531;SDS011;5822;51.000;5.874;2023-06-14T08:49:13;21.52;;;20.52;;
11531;SDS011;5822;51.000;5.874;2023-06-14T08:51:41;20.95;;;19.95;;
11531;SDS011;5822;51.000;5.874;2023-06-14T08:54:08;20.90;;;19.90;;
11531;SDS011;5822;51.000;5.874;2023-06-14T08:56:37;21.05;;;20.05;;
11531;SDS011;5822;51.000;5.874;2023-06-14T08:59:06;20.48;;;19.48;;
11531;SDS011;5822;51.000;5.874;2023-06-14T09:01:34;20.63;;;19.63;;
11531;SDS011;5822;51.000;5.874;2023-06-14T09:04:03;21.02;;;20.02;;
11531;SDS011;5822;51.000;5.874;2023-06-14T09:06:30;21.20;;;20.20;;
11531;SDS011;5822;51.000;5.874;2023-06-14T09:08:56;21.85;;;20.85;;
11531;SDS011;5822;51.000;5.874;2023-06-14T09:11:23;22.45;;;21.35;;
11531;SDS011;5822;51.000;5.874;2023-06-14T09:13:49;23.27;;;22.17;;
11531;SDS011;5822;51.000;5.874;2023-06-14T09:16:15;22.98;;;21.88;;
11531;SDS011;5822;51.000;5.874;2023-06-14T09:18:44;23.10;;;22.00;;
11531;SDS011;5822;51.000;5.874;2023-06-14T09:21:12;23.20;;;22.10;;
11531;SDS011;5822;51.000;5.874;2023-06-14T09:23:40;24.45;;;23.35;;
11531;SDS011;5822;51.000;5.874;2023-06-14T09:26:10;23.23;;;22.13;;
11531;SDS011;5822;51.000;5.874;2023-06-14T09:28:47;23.30;;;22.20;;
11531;SDS011;5822;51.000;5.874;2023-06-14T09:31:14;22.63;;;21.52;;
11531;SDS011;5822;51.000;5.874;2023-06-14T09:33:44;22.70;;;21.60;;
11531;SDS011;5822;51.000;5.874;2023-06-14T09:36:14;23.00;;;21.90;;
11531;SDS011;5822;51.000;5.874;2023-06-14T09:38:42;22.42;;;21.38;;
11531;SDS011;5822;51.000;5.874;2023-06-14T09:41:16;22.80;;;21.70;;
11531;SDS011;5822;51.000;5.874;2023-06-14T09:43:42;20.92;;;19.92;;
11531;SDS011;5822;51.000;5.874;2023-06-14T09:46:10;21.50;;;20.50;;
11531;SDS011;5822;51.000;5.874;2023-06-14T09:48:36;20.50;;;19.50;;
11531;SDS011;5822;51.000;5.874;2023-06-14T09:51:02;19.40;;;18.50;;
11531;SDS011;5822;51.000;5.874;2023-06-14T09:53:29;22.00;;;21.00;;
11531;SDS011;5822;51.000;5.874;2023-06-14T09:55:57;19.20;;;18.30;;
11531;SDS011;5822;51.000;5.874;2023-06-14T09:58:24;19.20;;;18.30;;
11531;SDS011;5822;51.000;5.874;2023-06-14T10:00:53;20.10;;;19.10;;
11531;SDS011;5822;51.000;5.874;2023-06-14T10:03:21;20.40;;;19.40;;
11531;SDS011;5822;51.000;5.874;2023-06-14T10:05:52;20.23;;;19.23;;
11531;SDS011;5822;51.000;5.874;2023-06-14T10:08:23;20.05;;;19.05;;
11531;SDS011;5822;51.000;5.874;2023-06-14T10:10:52;24.92;;;23.73;;
11531;SDS011;5822;51.000;5.874;2023-06-14T10:13:20;25.33;;;24.13;;
11531;SDS011;5822;51.000;5.874;2023-06-14T10:23:53;23.23;;;22.13;;
11531;SDS011;5822;51.000;5.874;2023-06-14T10:26:23;20.77;;;19.77;;
11531;SDS011;5822;51.000;5.874;2023-06-14T10:29:07;22.13;;;21.13;;
11531;SDS011;5822;51.000;5.874;2023-06-14T10:31:40;21.70;;;20.70;;
11531;SDS011;5822;51.000;5.874;2023-06-14T10:34:10;22.27;;;21.27;;
11531;SDS011;5822;51.000;5.874;2023-06-14T10:36:37;22.85;;;21.85;;
11531;SDS011;5822;51.000;5.874;2023-06-14T10:39:07;21.98;;;20.98;;
11531;SDS011;5822;51.000;5.874;2023-06-14T10:41:41;22.70;;;21.65;;
11531;SDS011;5822;51.000;5.874;2023-06-14T10:46:48;21.63;;;20.63;;
11531;SDS011;5822;51.000;5.874;2023-06-14T10:49:17;21.25;;;20.25;;
11531;SDS011;5822;51.000;5.874;2023-06-14T10:51:49;21.70;;;20.70;;
11531;SDS011;5822;51.000;5.874;2023-06-14T10:54:16;25.23;;;24.03;;
11531;SDS011;5822;51.000;5.874;2023-06-14T10:56:48;24.25;;;23.15;;
11531;SDS011;5822;51.000;5.874;2023-06-14T10:59:16;20.83;;;19.83;;
11531;SDS011;5822;51.000;5.874;2023-06-14T11:04:13;21.13;;;20.13;;
11531;SDS011;5822;51.000;5.874;2023-06-14T11:06:46;22.40;;;21.40;;
11531;SDS011;5822;51.000;5.874;2023-06-14T11:11:55;24.40;;;23.30;;
11531;SDS011;5822;51.000;5.874;2023-06-14T11:14:22;24.25;;;23.15;;
11531;SDS011;5822;51.000;5.874;2023-06-14T11:16:48;22.23;;;21.23;;
11531;SDS011;5822;51.000;5.874;2023-06-14T11:19:17;20.42;;;19.42;;
11531;SDS011;5822;51.000;5.874;2023-06-14T11:21:42;19.30;;;18.30;;
11531;SDS011;5822;51.000;5.874;2023-06-14T11:24:11;19.30;;;18.40;;
11531;SDS011;5822;51.000;5.874;2023-06-14T11:26:37;22.23;;;21.23;;
11531;SDS011;5822;51.000;5.874;2023-06-14T11:29:03;22.95;;;21.85;;
11531;SDS011;5822;51.000;5.874;2023-06-14T11:31:29;23.90;;;22.80;;
11531;SDS011;5822;51.000;5.874;2023-06-14T11:33:56;22.80;;;21.70;;
11531;SDS011;5822;51.000;5.874;2023-06-14T11:36:23;20.55;;;19.55;;
11531;SDS011;5822;51.000;5.874;2023-06-14T11:38:57;19.45;;;18.48;;
11531;SDS011;5822;51.000;5.874;2023-06-14T11:41:24;19.33;;;18.42;;
11531;SDS011;5822;51.000;5.874;2023-06-14T11:43:52;19.05;;;18.08;;
11531;SDS011;5822;51.000;5.874;2023-06-14T11:46:19;18.93;;;17.93;;
11531;SDS011;5822;51.000;5.874;2023-06-14T11:48:49;18.95;;;17.95;;
11531;SDS011;5822;51.000;5.874;2023-06-14T11:51:14;19.23;;;18.23;;
11531;SDS011;5822;51.000;5.874;2023-06-14T11:53:40;19.50;;;18.50;;
11531;SDS011;5822;51.000;5.874;2023-06-14T11:56:08;19.70;;;18.70;;
11531;SDS011;5822;51.000;5.874;2023-06-14T11:58:34;19.40;;;18.40;;
11531;SDS011;5822;51.000;5.874;2023-06-14T12:00:59;19.83;;;18.83;;
11531;SDS011;5822;51.000;5.874;2023-06-14T12:03:28;19.50;;;18.50;;
11531;SDS011;5822;51.000;5.874;2023-06-14T12:06:09;19.90;;;18.90;;
11531;SDS011;5822;51.000;5.874;2023-06-14T12:08:37;19.60;;;18.60;;
11531;SDS011;5822;51.000;5.874;2023-06-14T12:11:05;20.27;;;19.27;;
11531;SDS011;5822;51.000;5.874;2023-06-14T12:13:33;19.92;;;18.92;;
11531;SDS011;5822;51.000;5.874;2023-06-14T12:15:59;22.10;;;21.00;;
11531;SDS011;5822;51.000;5.874;2023-06-14T12:18:33;21.80;;;20.73;;
11531;SDS011;5822;51.000;5.874;2023-06-14T12:21:03;20.80;;;19.80;;
11531;SDS011;5822;51.000;5.874;2023-06-14T12:23:44;19.75;;;18.75;;
11531;SDS011;5822;51.000;5.874;2023-06-14T12:26:18;19.95;;;18.95;;
11531;SDS011;5822;51.000;5.874;2023-06-14T12:28:46;21.52;;;20.52;;
11531;SDS011;5822;51.000;5.874;2023-06-14T12:31:13;20.45;;;19.45;;
11531;SDS011;5822;51.000;5.874;2023-06-14T12:33:41;19.77;;;18.77;;
11531;SDS011;5822;51.000;5.874;2023-06-14T12:36:08;19.92;;;18.92;;
11531;SDS011;5822;51.000;5.874;2023-06-14T12:38:35;21.42;;;20.33;;
11531;SDS011;5822;51.000;5.874;2023-06-14T12:41:01;22.38;;;21.27;;
11531;SDS011;5822;51.000;5.874;2023-06-14T12:43:27;22.83;;;21.73;;
11531;SDS011;5822;51.000;5.874;2023-06-14T12:45:53;22.50;;;21.40;;
11531;SDS011;5822;51.000;5.874;2023-06-14T12:48:19;22.35;;;21.25;;
11531;SDS011;5822;51.000;5.874;2023-06-14T12:50:45;21.55;;;20.55;;
11531;SDS011;5822;51.000;5.874;2023-06-14T12:53:11;21.45;;;20.45;;
11531;SDS011;5822;51.000;5.874;2023-06-14T12:55:37;21.65;;;20.65;;
11531;SDS011;5822;51.000;5.874;2023-06-14T12:58:03;25.60;;;24.40;;
11531;SDS011;5822;51.000;5.874;2023-06-14T13:00:28;25.40;;;24.20;;
11531;SDS011;5822;51.000;5.874;2023-06-14T13:02:57;24.20;;;23.10;;
11531;SDS011;5822;51.000;5.874;2023-06-14T13:05:23;22.75;;;21.65;;
11531;SDS011;5822;51.000;5.874;2023-06-14T13:07:49;23.60;;;22.50;;
11531;SDS011;5822;51.000;5.874;2023-06-14T13:10:15;25.05;;;23.85;;
11531;SDS011;5822;51.000;5.874;2023-06-14T13:12:42;23.83;;;22.73;;
11531;SDS011;5822;51.000;5.874;2023-06-14T13:15:08;22.25;;;21.15;;
11531;SDS011;5822;51.000;5.874;2023-06-14T13:17:34;22.27;;;21.17;;
11531;SDS011;5822;51.000;5.874;2023-06-14T13:20:06;22.10;;;21.00;;
11531;SDS011;5822;51.000;5.874;2023-06-14T13:22:33;22.58;;;21.58;;
11531;SDS011;5822;51.000;5.874;2023-06-14T13:24:59;21.50;;;20.50;;
11531;SDS011;5822;51.000;5.874;2023-06-14T13:27:26;20.83;;;19.83;;
11531;SDS011;5822;51.000;5.874;2023-06-14T13:29:52;20.98;;;19.98;;
11531;SDS011;5822;51.000;5.874;2023-06-14T13:32:20;22.45;;;21.42;;
11531;SDS011;5822;51.000;5.874;2023-06-14T13:34:54;21.55;;;20.55;;
11531;SDS011;5822;51.000;5.874;2023-06-14T13:37:20;21.67;;;20.65;;
11531;SDS011;5822;51.000;5.874;2023-06-14T13:39:46;19.57;;;18.57;;
11531;SDS011;5822;51.000;5.874;2023-06-14T13:42:11;19.75;;;18.75;;
11531;SDS011;5822;51.000;5.874;2023-06-14T13:44:37;20.50;;;19.50;;
11531;SDS011;5822;51.000;5.874;2023-06-14T13:47:05;21.40;;;20.40;;
11531;SDS011;5822;51.000;5.874;2023-06-14T13:49:31;22.02;;;21.02;;
11531;SDS011;5822;51.000;5.874;2023-06-14T13:52:00;20.80;;;19.80;;
11531;SDS011;5822;51.000;5.874;2023-06-14T13:54:26;23.20;;;22.10;;
11531;SDS011;5822;51.000;5.874;2023-06-14T13:56:52;20.10;;;19.10;;
11531;SDS011;5822;51.000;5.874;2023-06-14T13:59:20;18.20;;;17.30;;
11531;SDS011;5822;51.000;5.874;2023-06-14T14:01:47;18.75;;;17.85;;
11531;SDS011;5822;51.000;5.874;2023-06-14T14:04:13;18.98;;;18.08;;
11531;SDS011;5822;51.000;5.874;2023-06-14T14:06:38;19.50;;;18.50;;
11531;SDS011;5822;51.000;5.874;2023-06-14T14:09:04;22.05;;;21.05;;
11531;SDS011;5822;51.000;5.874;2023-06-14T14:11:30;19.80;;;18.80;;
11531;SDS011;5822;51.000;5.874;2023-06-14T14:13:58;18.05;;;17.15;;
11531;SDS011;5822;51.000;5.874;2023-06-14T14:16:24;18.48;;;17.58;;
11531;SDS011;5822;51.000;5.874;2023-06-14T14:18:50;18.57;;;17.67;;
11531;SDS011;5822;51.000;5.874;2023-06-14T14:21:15;19.58;;;18.58;;
11531;SDS011;5822;51.000;5.874;2023-06-14T14:23:41;18.77;;;17.87;;
11531;SDS011;5822;51.000;5.874;2023-06-14T14:26:06;18.70;;;17.80;;
11531;SDS011;5822;51.000;5.874;2023-06-14T14:28:32;18.60;;;17.70;;
11531;SDS011;5822;51.000;5.874;2023-06-14T14:30:58;18.45;;;17.55;;
11531;SDS011;5822;51.000;5.874;2023-06-14T14:33:24;21.50;;;20.50;;
11531;SDS011;5822;51.000;5.874;2023-06-14T14:35:50;21.90;;;20.90;;
11531;SDS011;5822;51.000;5.874;2023-06-14T14:38:16;19.13;;;18.23;;
11531;SDS011;5822;51.000;5.874;2023-06-14T14:40:42;19.10;;;18.20;;
11531;SDS011;5822;51.000;5.874;2023-06-14T14:43:09;19.90;;;18.90;;
11531;SDS011;5822;51.000;5.874;2023-06-14T14:45:35;20.05;;;19.05;;
11531;SDS011;5822;51.000;5.874;2023-06-14T14:48:01;21.67;;;20.65;;
11531;SDS011;5822;51.000;5.874;2023-06-14T14:50:27;19.25;;;18.25;;
11531;SDS011;5822;51.000;5.874;2023-06-14T14:52:53;19.23;;;18.23;;
11531;SDS011;5822;51.000;5.874;2023-06-14T14:55:19;19.10;;;18.20;;
11531;SDS011;5822;51.000;5.874;2023-06-14T14:57:45;18.40;;;17.50;;